Hovedside
METAR-TAF:

METAR-TAF

Lufthavner :

Vidsel, Sverige

breddegrad: 65-52N, lengdegrad: 020-08E, høyde over havet: 180 m

Gjeldene værobservasjon

Denne rapporten ble laget for 33 minutter siden, klokken 06:50 UTC
Vind 4 kt fra Øst, skiftende mellom Øst-nordøst og Sørøst
Temperatur 1°C
Luftfuktighet 100%
Trykk 998 hPa
Sikt 10 km eller mer

METAR: ESPE 210650Z AUTO 10004KT 070V130 9999 OVC003/// 01/01 Q0998

Tid: 09:23 (07:23 UTC)


TAF: fraværende

Værobservasjoner og værvarsel for over 4000 flyplasser (METAR- og TAF-rapporter).

Tilgjengelige stasjoner er representert av de røde og gule prikkene på kartet.

Hold musepekeren over prikken for å se navnet på stasjonen.

Klikk så for å se værobservasjoner og -varsler.

For å forandre kartet kan du klikke på den grønne knappen med svart kryss for å zoome inn, på den grønne knappen med strek for å zoome ut, eller på de grønne pilene for å se tilstøtende kart.


METAR-TAF: